Time;durP1;ratioP1;P1;durP2;ratioP2;P2;SDS_P1;SDS_P2;PMS_P1;PMS_P2;Temp;Humidity;BMP_temperature;BMP_pressure;BME280_temperature;BME280_humidity;BME280_pressure;Samples;Min_cycle;Max_cycle;Signal;HPM_P1;HPM_P2
2023/06/28 03:01:24;;;;;;;164.87;156.00;;;16.60;99.90;;;;;;5364380;23;20232;-87
2023/06/28 03:03:50;;;;;;;282.63;266.03;;;16.50;99.90;;;;;;4885263;29;20280;-86
2023/06/28 03:06:16;;;;;;;116.10;109.77;;;16.60;99.90;;;;;;4895907;29;20187;-87
2023/06/28 03:08:42;;;;;;;176.83;166.20;;;16.60;99.90;;;;;;4899044;29;20234;-88
2023/06/28 03:11:08;;;;;;;58.20;54.87;;;16.60;99.90;;;;;;4892325;29;20206;-88
2023/06/28 03:13:33;;;;;;;16.67;15.37;;;16.60;99.90;;;;;;4864266;24;20232;-74
2023/06/28 03:16:00;;;;;;;11.40;10.47;;;16.50;99.90;;;;;;4893901;29;20188;-74
2023/06/28 03:18:26;;;;;;;24.47;22.93;;;16.50;99.90;;;;;;4895763;29;20342;-73
2023/06/28 03:20:52;;;;;;;50.43;47.47;;;16.50;99.90;;;;;;4897487;29;20188;-73
2023/06/28 03:23:18;;;;;;;49.00;46.30;;;16.50;99.90;;;;;;4878860;29;20235;-73
2023/06/28 03:25:44;;;;;;;36.33;34.33;;;16.50;99.90;;;;;;4871962;29;20181;-73
2023/06/28 03:28:11;;;;;;;23.63;22.20;;;16.60;99.90;;;;;;4877904;29;20199;-73
2023/06/28 03:30:36;;;;;;;17.70;16.20;;;16.70;99.90;;;;;;4878375;29;20604;-73
2023/06/28 03:33:03;;;;;;;28.87;27.40;;;16.70;99.90;;;;;;4878106;29;20192;-73
2023/06/28 03:35:29;;;;;;;25.33;23.83;;;16.80;99.90;;;;;;4884737;29;20185;-71
2023/06/28 03:37:56;;;;;;;28.57;27.03;;;16.80;99.90;;;;;;4874573;29;20256;-70
2023/06/28 03:40:22;;;;;;;29.47;27.60;;;16.90;99.90;;;;;;4881286;29;20188;-71
2023/06/28 03:42:48;;;;;;;64.83;61.30;;;16.90;99.90;;;;;;4881841;29;20196;-71
2023/06/28 03:45:15;;;;;;;78.60;74.43;;;16.90;99.90;;;;;;4877251;29;20291;-70
2023/06/28 03:47:41;;;;;;;182.43;171.83;;;16.90;99.90;;;;;;4877444;29;20196;-71
2023/06/28 03:50:07;;;;;;;161.37;152.80;;;17.00;99.90;;;;;;4879260;29;20716;-71
2023/06/28 03:52:33;;;;;;;130.20;122.90;;;17.00;99.90;;;;;;4887032;29;20233;-70
2023/06/28 03:54:59;;;;;;;131.77;124.63;;;17.10;99.90;;;;;;4874058;29;20243;-71
2023/06/28 03:57:25;;;;;;;179.67;169.90;;;17.10;99.90;;;;;;4877122;29;20699;-71
2023/06/28 03:59:51;;;;;;;273.15;257.98;;;17.10;99.90;;;;;;4877538;29;20231;-71
2023/06/28 04:02:17;;;;;;;345.47;325.97;;;17.00;99.90;;;;;;4877095;29;20552;-71
2023/06/28 04:04:42;;;;;;;328.10;309.53;;;17.00;99.90;;;;;;4876653;29;20672;-71
2023/06/28 04:07:08;;;;;;;217.80;205.97;;;17.10;99.90;;;;;;4873955;29;20188;-71
2023/06/28 04:09:34;;;;;;;200.33;189.17;;;17.10;99.90;;;;;;4877182;29;20287;-71
2023/06/28 04:11:59;;;;;;;176.87;167.47;;;17.10;99.90;;;;;;4874000;29;20653;-71
2023/06/28 04:14:25;;;;;;;180.63;170.50;;;17.10;99.90;;;;;;4873222;29;20593;-71
2023/06/28 04:16:52;;;;;;;202.53;191.27;;;17.20;99.90;;;;;;4878441;29;20196;-70
2023/06/28 04:19:19;;;;;;;108.43;102.45;;;17.20;99.90;;;;;;4877115;29;20272;-71
2023/06/28 04:21:45;;;;;;;74.40;70.10;;;17.30;99.90;;;;;;4876696;29;20385;-72
2023/06/28 04:24:10;;;;;;;31.30;29.43;;;17.30;99.90;;;;;;4877335;29;20306;-73
2023/06/28 04:26:36;;;;;;;22.13;20.63;;;17.40;99.90;;;;;;4882472;29;20743;-72
2023/06/28 04:29:02;;;;;;;23.30;22.00;;;17.40;99.90;;;;;;4872847;29;20188;-72
2023/06/28 04:31:29;;;;;;;52.93;50.13;;;17.40;99.90;;;;;;4883360;29;20303;-71
2023/06/28 04:33:57;;;;;;;94.10;89.33;;;17.50;99.90;;;;;;4884586;29;20219;-71
2023/06/28 04:36:25;;;;;;;100.93;95.87;;;17.50;99.90;;;;;;4870590;29;20728;-72
2023/06/28 04:38:54;;;;;;;79.80;75.40;;;17.50;99.90;;;;;;4877313;29;20203;-73
2023/06/28 04:41:22;;;;;;;50.57;47.37;;;17.60;99.90;;;;;;4877735;29;20219;-72
2023/06/28 04:43:49;;;;;;;41.13;38.77;;;17.50;99.90;;;;;;4876700;29;20220;-72
2023/06/28 04:46:15;;;;;;;50.47;47.20;;;17.50;99.90;;;;;;4876707;29;20195;-71
2023/06/28 04:48:42;;;;;;;77.28;73.28;;;17.50;99.90;;;;;;4870010;29;20645;-71
2023/06/28 04:51:08;;;;;;;88.43;83.68;;;17.50;99.90;;;;;;4874765;29;20201;-76
2023/06/28 04:53:34;;;;;;;89.37;84.77;;;17.50;99.90;;;;;;4881092;29;20212;-76
2023/06/28 04:56:00;;;;;;;80.70;76.43;;;17.50;99.90;;;;;;4879702;29;20570;-77
2023/06/28 04:58:26;;;;;;;94.00;88.97;;;17.50;99.90;;;;;;4876932;29;20636;-75
2023/06/28 05:00:56;;;;;;;79.77;75.43;;;17.60;99.90;;;;;;4874137;29;20283;-76
2023/06/28 05:03:26;;;;;;;38.00;36.00;;;17.60;99.90;;;;;;4880352;29;20310;-77
2023/06/28 05:05:54;;;;;;;19.45;18.10;;;17.60;99.90;;;;;;4888181;29;20191;-76
2023/06/28 05:08:20;;;;;;;8.15;7.53;;;17.70;99.90;;;;;;4878963;29;20278;-76
2023/06/28 05:10:46;;;;;;;8.85;7.90;;;17.80;99.90;;;;;;4880302;29;20671;-76
2023/06/28 05:13:12;;;;;;;6.23;5.83;;;17.80;99.90;;;;;;4875815;29;20260;-76
2023/06/28 05:15:38;;;;;;;14.00;12.87;;;17.80;99.90;;;;;;4878533;29;20200;-77
2023/06/28 05:18:04;;;;;;;19.88;18.77;;;17.80;99.90;;;;;;4877025;29;20274;-76
2023/06/28 05:20:31;;;;;;;46.73;43.73;;;17.80;99.90;;;;;;4877005;29;20204;-77
2023/06/28 05:23:15;;;;;;;44.27;42.00;;;17.90;99.90;;;;;;4876773;29;20192;-77
2023/06/28 05:25:42;;;;;;;43.80;41.55;;;18.00;99.90;;;;;;4877966;29;20192;-76
2023/06/28 05:28:09;;;;;;;63.72;60.15;;;18.00;99.90;;;;;;4880336;29;20191;-76
2023/06/28 05:30:35;;;;;;;68.85;65.45;;;18.00;99.90;;;;;;4877352;29;20332;-77
2023/06/28 05:33:02;;;;;;;22.77;21.33;;;18.10;99.90;;;;;;4879868;29;20287;-77
2023/06/28 05:35:32;;;;;;;9.77;8.80;;;18.20;99.90;;;;;;4876739;29;20221;-77
2023/06/28 05:38:03;;;;;;;18.73;17.58;;;18.30;99.90;;;;;;4877740;29;20188;-77
2023/06/28 05:40:30;;;;;;;33.30;31.40;;;18.40;99.90;;;;;;4880239;29;20183;-77
2023/06/28 05:42:57;;;;;;;32.88;31.08;;;18.50;99.90;;;;;;4881175;29;20263;-77
2023/06/28 05:45:26;;;;;;;33.88;31.38;;;18.60;99.90;;;;;;4882981;29;20203;-76
2023/06/28 05:47:53;;;;;;;30.35;28.75;;;18.60;99.90;;;;;;4870405;29;20556;-76
2023/06/28 05:50:21;;;;;;;28.33;26.63;;;18.70;99.90;;;;;;4877064;29;20275;-77
2023/06/28 05:52:48;;;;;;;18.52;17.25;;;18.80;99.90;;;;;;4882412;29;20203;-77
2023/06/28 05:55:14;;;;;;;10.82;9.82;;;18.80;99.90;;;;;;4884074;29;20253;-76
2023/06/28 05:57:40;;;;;;;11.18;10.02;;;18.80;99.90;;;;;;4878717;29;20216;-77
2023/06/28 06:00:09;;;;;;;10.00;9.20;;;18.60;99.90;;;;;;4880027;29;20189;-77
2023/06/28 06:02:35;;;;;;;9.15;8.35;;;18.60;99.90;;;;;;4879796;29;20272;-76
2023/06/28 06:05:03;;;;;;;8.63;7.93;;;18.60;99.90;;;;;;4882274;29;20620;-76
2023/06/28 06:07:29;;;;;;;7.63;6.88;;;18.70;99.90;;;;;;4888443;29;20271;-75
2023/06/28 06:09:55;;;;;;;7.82;7.32;;;18.80;99.90;;;;;;4880581;29;20634;-77
2023/06/28 06:12:21;;;;;;;9.05;8.30;;;18.70;99.90;;;;;;4880176;29;20256;-76
2023/06/28 06:14:50;;;;;;;9.85;8.82;;;18.70;99.90;;;;;;4879957;29;20319;-76
2023/06/28 06:17:19;;;;;;;9.68;7.00;;;18.70;99.90;;;;;;4878484;29;20199;-76
2023/06/28 06:19:45;;;;;;;8.82;8.07;;;18.60;99.90;;;;;;4878967;29;20197;-76
2023/06/28 06:22:11;;;;;;;7.32;6.72;;;18.50;99.90;;;;;;4879513;29;20201;-75
2023/06/28 06:24:37;;;;;;;10.07;9.38;;;18.40;99.90;;;;;;4874212;29;20231;-75
2023/06/28 06:27:03;;;;;;;8.68;8.18;;;18.10;99.90;;;;;;4879787;29;20200;-76
2023/06/28 06:29:30;;;;;;;10.10;9.30;;;18.00;99.90;;;;;;4880104;29;20217;-76
2023/06/28 06:31:56;;;;;;;9.32;8.63;;;17.90;99.90;;;;;;4880481;29;20188;-75
2023/06/28 06:34:21;;;;;;;8.85;8.20;;;18.10;99.90;;;;;;4878431;29;20268;-76
2023/06/28 06:36:47;;;;;;;7.75;7.25;;;18.20;99.90;;;;;;4880036;29;20283;-76
2023/06/28 06:39:13;;;;;;;7.95;7.32;;;18.20;99.90;;;;;;4879459;29;20193;-76
2023/06/28 06:41:39;;;;;;;9.75;8.93;;;18.00;99.90;;;;;;4879823;29;20221;-75
2023/06/28 06:44:04;;;;;;;14.77;13.65;;;18.00;99.90;;;;;;4876135;29;20228;-76
2023/06/28 06:46:30;;;;;;;17.70;16.60;;;18.00;99.90;;;;;;4878405;29;20192;-75
2023/06/28 06:48:56;;;;;;;19.30;17.90;;;18.10;99.90;;;;;;4871902;29;20189;-76
2023/06/28 06:51:22;;;;;;;23.13;21.50;;;18.20;99.90;;;;;;4875152;29;20193;-76
2023/06/28 06:53:47;;;;;;;23.30;21.90;;;18.40;99.90;;;;;;4875300;29;20311;-76
2023/06/28 06:56:20;;;;;;;18.15;16.65;;;18.50;99.90;;;;;;4881757;29;20200;-76
2023/06/28 06:58:46;;;;;;;9.63;8.73;;;18.60;99.90;;;;;;4889434;29;20203;-75
2023/06/28 07:01:12;;;;;;;10.13;9.23;;;18.70;99.90;;;;;;4897298;29;20256;-76
2023/06/28 07:03:37;;;;;;;10.27;9.43;;;18.70;99.90;;;;;;4881394;29;20328;-75
2023/06/28 07:06:03;;;;;;;11.13;10.07;;;18.80;99.90;;;;;;4879286;29;20200;-76
2023/06/28 07:08:29;;;;;;;11.20;10.40;;;18.80;99.90;;;;;;4883277;29;20187;-76
2023/06/28 07:10:55;;;;;;;10.25;9.45;;;18.90;99.90;;;;;;4882361;29;20196;-76
2023/06/28 07:13:20;;;;;;;9.82;9.02;;;18.90;99.90;;;;;;4878931;29;20276;-77
2023/06/28 07:15:46;;;;;;;10.68;9.95;;;19.10;99.90;;;;;;4878422;29;20188;-76
2023/06/28 07:18:12;;;;;;;9.73;8.07;;;19.00;99.90;;;;;;4878642;29;20314;-76
2023/06/28 07:20:38;;;;;;;7.78;7.20;;;19.10;99.90;;;;;;4878970;29;20220;-76
2023/06/28 07:23:03;;;;;;;9.45;8.73;;;19.20;99.90;;;;;;4875635;29;20201;-76
2023/06/28 07:25:30;;;;;;;10.20;9.57;;;19.10;99.90;;;;;;4877752;29;20188;-76
2023/06/28 07:27:55;;;;;;;9.90;9.30;;;19.20;99.90;;;;;;4877336;29;20200;-76
2023/06/28 07:30:23;;;;;;;8.68;8.00;;;19.40;99.90;;;;;;4873378;29;20189;-76
2023/06/28 07:32:49;;;;;;;10.05;9.43;;;19.50;99.90;;;;;;4878826;29;20196;-76
2023/06/28 07:35:15;;;;;;;13.63;12.75;;;19.60;99.90;;;;;;4877286;29;20764;-76
2023/06/28 07:37:41;;;;;;;19.65;18.35;;;19.80;99.90;;;;;;4877444;29;20222;-77
2023/06/28 07:40:08;;;;;;;15.80;14.75;;;20.00;99.90;;;;;;4864676;29;20228;-76
2023/06/28 07:42:33;;;;;;;9.60;8.93;;;20.40;99.90;;;;;;4874368;29;20197;-76
2023/06/28 07:44:59;;;;;;;12.05;8.68;;;20.50;99.90;;;;;;4875587;29;20221;-76
2023/06/28 07:47:25;;;;;;;9.23;8.60;;;20.60;99.90;;;;;;4878201;29;20603;-77
2023/06/28 07:49:51;;;;;;;13.57;12.65;;;20.70;99.90;;;;;;4878806;29;20227;-77
2023/06/28 07:52:16;;;;;;;21.17;20.05;;;20.90;99.90;;;;;;4877775;29;20192;-76
2023/06/28 07:54:42;;;;;;;21.13;19.77;;;21.00;99.90;;;;;;4870394;29;20227;-76
2023/06/28 07:57:09;;;;;;;16.67;15.63;;;21.10;99.90;;;;;;4876794;29;20618;-76
2023/06/28 07:59:34;;;;;;;12.13;11.15;;;21.30;99.90;;;;;;4878520;29;20282;-75
2023/06/28 08:02:00;;;;;;;8.57;7.88;;;21.60;99.90;;;;;;4878585;29;20639;-76
2023/06/28 08:04:26;;;;;;;6.63;6.03;;;21.70;99.90;;;;;;4878808;29;20596;-75
2023/06/28 08:06:52;;;;;;;6.45;5.80;;;21.60;99.90;;;;;;4875985;29;20636;-74
2023/06/28 08:09:17;;;;;;;5.75;5.13;;;21.50;99.90;;;;;;4877138;29;20721;-75
2023/06/28 08:11:43;;;;;;;12.35;6.05;;;21.50;99.90;;;;;;4879469;29;20260;-75
2023/06/28 08:14:09;;;;;;;7.57;7.00;;;21.50;99.90;;;;;;4889673;29;20238;-74
2023/06/28 08:16:35;;;;;;;11.30;10.38;;;21.90;99.90;;;;;;4883126;29;20204;-75
2023/06/28 08:19:00;;;;;;;11.02;10.20;;;22.30;99.90;;;;;;4882470;29;20196;-75
2023/06/28 08:21:26;;;;;;;13.13;12.13;;;22.70;99.90;;;;;;4874351;29;20220;-75
2023/06/28 08:23:52;;;;;;;14.07;13.23;;;22.90;99.90;;;;;;4877972;29;20223;-75
2023/06/28 08:26:18;;;;;;;15.02;14.13;;;22.70;99.90;;;;;;4877998;29;20200;-75
2023/06/28 08:28:44;;;;;;;15.38;13.93;;;22.80;99.90;;;;;;4877614;29;20247;-75
2023/06/28 08:31:10;;;;;;;16.50;15.43;;;22.60;99.90;;;;;;4877340;29;20185;-75
2023/06/28 08:33:35;;;;;;;9.57;8.68;;;23.00;99.90;;;;;;4885947;29;20235;-75
2023/06/28 08:36:01;;;;;;;7.18;6.60;;;23.40;99.90;;;;;;4894537;29;20192;-74
2023/06/28 08:38:27;;;;;;;7.72;7.20;;;23.80;99.90;;;;;;4877734;29;20219;-76
2023/06/28 08:40:53;;;;;;;8.90;8.15;;;24.10;99.90;;;;;;4877080;29;20208;-76
2023/06/28 08:43:21;;;;;;;7.53;6.88;;;24.50;99.10;;;;;;4877489;29;20322;-76
2023/06/28 08:45:47;;;;;;;6.82;6.38;;;25.10;97.60;;;;;;4877520;29;20228;-74
2023/06/28 08:48:14;;;;;;;6.28;5.78;;;25.60;95.90;;;;;;4877166;29;20653;-76
2023/06/28 08:50:43;;;;;;;12.45;11.73;;;26.20;93.70;;;;;;4876617;29;20705;-75
2023/06/28 08:53:16;;;;;;;11.25;10.55;;;26.50;92.80;;;;;;4877365;29;20753;-76
2023/06/28 08:55:42;;;;;;;12.98;11.88;;;26.50;91.20;;;;;;4877320;29;20204;-76
2023/06/28 08:58:10;;;;;;;13.05;11.90;;;25.90;90.40;;;;;;4875769;29;20279;-76
2023/06/28 09:00:35;;;;;;;15.82;14.88;;;26.00;90.10;;;;;;4876573;29;20196;-76
2023/06/28 09:03:01;;;;;;;18.52;17.20;;;26.70;86.80;;;;;;4872451;29;20559;-76
2023/06/28 09:05:28;;;;;;;9.25;8.30;;;26.50;87.50;;;;;;4876053;29;20336;-76
2023/06/28 09:07:56;;;;;;;7.45;6.95;;;27.30;83.40;;;;;;4875489;29;20609;-76
2023/06/28 09:10:23;;;;;;;5.05;4.63;;;27.90;80.00;;;;;;4875986;29;20653;-76
2023/06/28 09:12:50;;;;;;;5.32;4.20;;;28.70;73.30;;;;;;4876504;29;20203;-76
2023/06/28 09:15:21;;;;;;;5.22;4.63;;;28.70;72.60;;;;;;4900349;23;20243;-79
2023/06/28 09:17:47;;;;;;;5.10;4.70;;;28.90;70.10;;;;;;4883264;29;20203;-80
2023/06/28 09:20:18;;;;;;;5.95;4.32;;;28.80;70.90;;;;;;4877865;29;20276;-80
2023/06/28 09:22:55;;;;;;;5.28;4.88;;;28.50;71.80;;;;;;4884839;29;20192;-80
2023/06/28 09:25:20;;;;;;;4.30;3.95;;;28.10;70.10;;;;;;4893527;29;20215;-80
2023/06/28 09:27:46;;;;;;;7.18;5.30;;;28.50;71.50;;;;;;4896658;29;20188;-80
2023/06/28 09:30:19;;;;;;;5.13;4.72;;;28.60;67.50;;;;;;4905764;29;20194;-80
2023/06/28 09:32:50;;;;;;;10.70;4.93;;;29.00;68.40;;;;;;4909300;29;20187;-80
2023/06/28 09:35:20;;;;;;;8.25;7.47;;;29.60;65.40;;;;;;4900858;29;20220;-79
2023/06/28 09:37:54;;;;;;;5.90;5.32;;;29.60;63.20;;;;;;4900564;29;20207;-82
2023/06/28 09:40:20;;;;;;;8.40;6.43;;;29.50;63.40;;;;;;4889676;29;20200;-79
2023/06/28 09:42:50;;;;;;;13.25;12.18;;;29.70;63.00;;;;;;4898018;29;20247;-80
2023/06/28 09:45:25;;;;;;;10.18;7.90;;;29.80;61.30;;;;;;4891985;29;20579;-79
2023/06/28 09:47:58;;;;;;;10.23;9.50;;;29.90;59.90;;;;;;4890582;29;20212;-78
2023/06/28 09:50:33;;;;;;;8.45;6.28;;;29.40;59.90;;;;;;4887745;29;20203;-78
2023/06/28 09:52:59;;;;;;;9.70;9.02;;;29.80;60.00;;;;;;4894785;29;20194;-79
2023/06/28 09:55:25;;;;;;;9.38;8.68;;;29.70;60.10;;;;;;4896867;29;20211;-79
2023/06/28 09:57:52;;;;;;;15.05;14.25;;;29.20;59.90;;;;;;4892932;29;20610;-79
2023/06/28 10:00:20;;;;;;;22.17;20.95;;;28.90;60.30;;;;;;4895485;29;20270;-79
2023/06/28 10:02:48;;;;;;;19.98;18.63;;;28.30;59.70;;;;;;4897569;29;20192;-79
2023/06/28 10:05:15;;;;;;;19.30;18.02;;;28.00;61.10;;;;;;4897725;29;20219;-81
2023/06/28 10:07:42;;;;;;;13.65;12.82;;;27.50;63.60;;;;;;4905488;29;20199;-81
2023/06/28 10:10:09;;;;;;;8.80;8.23;;;27.40;63.50;;;;;;4903907;29;20212;-80
2023/06/28 10:12:36;;;;;;;13.73;12.93;;;27.90;63.80;;;;;;4897436;29;20192;-80
2023/06/28 10:15:06;;;;;;;16.23;15.25;;;28.90;60.50;;;;;;4898084;29;20227;-80
2023/06/28 10:17:34;;;;;;;7.18;6.05;;;29.80;60.80;;;;;;4894533;29;20202;-81
2023/06/28 10:20:01;;;;;;;10.27;9.40;;;30.70;57.50;;;;;;4899006;29;20206;-82
2023/06/28 10:22:29;;;;;;;23.60;22.20;;;30.70;57.00;;;;;;4901811;29;20192;-82
2023/06/28 10:24:57;;;;;;;16.83;15.95;;;30.70;55.80;;;;;;4895407;29;20228;-81
2023/06/28 10:27:23;;;;;;;24.80;23.23;;;30.30;56.10;;;;;;4884323;29;20732;-80
2023/06/28 10:29:50;;;;;;;11.10;10.50;;;29.60;57.70;;;;;;4894245;29;20223;-81
2023/06/28 10:32:16;;;;;;;17.27;16.27;;;28.70;58.50;;;;;;4901207;29;20192;-81
2023/06/28 10:34:45;;;;;;;14.40;13.60;;;27.80;61.10;;;;;;4902847;29;20243;-82
2023/06/28 10:37:12;;;;;;;11.60;10.88;;;27.40;62.30;;;;;;4908020;29;20202;-69
2023/06/28 10:39:38;;;;;;;18.15;17.13;;;28.10;63.00;;;;;;4894196;29;20294;-76
2023/06/28 10:42:05;;;;;;;14.60;13.60;;;29.40;59.70;;;;;;4898804;29;20222;-78
2023/06/28 10:44:31;;;;;;;14.00;13.27;;;30.20;58.40;;;;;;4895558;29;20272;-76
2023/06/28 10:47:13;;;;;;;22.75;21.42;;;31.50;56.70;;;;;;4894913;29;20203;-76
2023/06/28 10:49:42;;;;;;;5.40;4.90;;;32.40;55.10;;;;;;4907383;29;20188;-83
2023/06/28 10:52:18;;;;;;;6.35;5.78;;;32.90;52.60;;;;;;4911707;29;20250;-84
2023/06/28 10:54:45;;;;;;;5.78;5.15;;;32.60;51.90;;;;;;4912094;29;20290;-84
2023/06/28 10:57:11;;;;;;;7.57;6.80;;;31.70;52.50;;;;;;4903643;29;20563;-84
2023/06/28 10:59:41;;;;;;;29.05;27.23;;;30.90;54.70;;;;;;4908524;29;20204;-83
2023/06/28 11:02:07;;;;;;;71.82;68.10;;;30.30;55.80;;;;;;4895697;29;20558;-83
2023/06/28 11:04:48;;;;;;;28.23;26.50;;;29.80;56.80;;;;;;4910069;29;20227;-84
2023/06/28 11:07:21;;;;;;;17.00;15.93;;;28.80;57.80;;;;;;4913547;29;20195;-84
2023/06/28 11:10:10;;;;;;;19.83;18.63;;;27.70;59.40;;;;;;4911376;29;20191;-84
2023/06/28 11:12:38;;;;;;;5.70;5.18;;;27.10;62.00;;;;;;4904225;29;20267;-82
2023/06/28 11:15:14;;;;;;;5.03;4.78;;;26.60;62.40;;;;;;4902448;29;20581;-83
2023/06/28 11:17:40;;;;;;;10.68;8.55;;;26.40;63.10;;;;;;4906977;29;20231;-83
2023/06/28 11:20:07;;;;;;;6.50;6.00;;;26.60;62.80;;;;;;4910848;29;20199;-83
2023/06/28 11:22:53;;;;;;;10.57;9.85;;;27.50;62.20;;;;;;4908259;29;20325;-83
2023/06/28 11:25:28;;;;;;;18.20;17.15;;;29.10;59.70;;;;;;4900551;29;20230;-82
2023/06/28 11:27:58;;;;;;;14.57;13.65;;;29.70;57.30;;;;;;4901397;29;20929;-83
2023/06/28 11:31:13;;;;;;;13.15;12.45;;;29.80;56.90;;;;;;4916233;29;20191;-81
2023/06/28 11:33:41;;;;;;;13.32;12.57;;;29.70;55.80;;;;;;4852272;29;20210;-85
2023/06/28 11:36:07;;;;;;;11.95;11.27;;;29.40;56.50;;;;;;4893496;29;20195;-80
2023/06/28 11:38:35;;;;;;;8.52;7.90;;;29.50;57.00;;;;;;4896942;29;20190;-82
2023/06/28 11:41:00;;;;;;;15.32;14.40;;;29.70;56.40;;;;;;4900362;29;20670;-84
2023/06/28 11:43:26;;;;;;;19.50;18.20;;;30.40;56.10;;;;;;4901663;29;20204;-83
2023/06/28 11:45:52;;;;;;;32.17;30.25;;;31.50;55.20;;;;;;4914928;29;20223;-83
2023/06/28 11:48:20;;;;;;;10.43;9.68;;;32.90;53.20;;;;;;4915721;29;20487;-83
2023/06/28 11:50:59;;;;;;;3.88;3.53;;;33.30;51.90;;;;;;4915780;29;20704;-84
2023/06/28 11:53:27;;;;;;;37.42;35.17;;;34.10;50.70;;;;;;4909995;29;20206;-83
2023/06/28 11:55:54;;;;;;;36.45;34.38;;;33.90;49.20;;;;;;4913058;29;20208;-83
2023/06/28 11:58:34;;;;;;;35.65;33.63;;;33.30;50.50;;;;;;4906421;29;20195;-82
2023/06/28 12:01:04;;;;;;;10.25;9.55;;;32.40;50.60;;;;;;4909012;29;20199;-84
2023/06/28 12:03:35;;;;;;;10.45;9.73;;;31.00;52.00;;;;;;4910377;29;20230;-82
2023/06/28 12:06:03;;;;;;;66.38;63.08;;;30.10;54.20;;;;;;4909989;29;20198;-82
2023/06/28 12:08:37;;;;;;;41.15;38.97;;;29.20;56.50;;;;;;4909065;29;20182;-84
2023/06/28 12:11:15;;;;;;;21.10;19.92;;;28.60;57.20;;;;;;4915289;29;20203;-83
2023/06/28 12:13:42;;;;;;;15.93;14.95;;;28.90;57.70;;;;;;4908166;29;20214;-82
2023/06/28 12:16:18;;;;;;;34.95;33.20;;;29.20;57.10;;;;;;4910607;29;20196;-82
2023/06/28 12:18:58;;;;;;;20.48;19.27;;;30.50;54.20;;;;;;4909463;29;20194;-84
2023/06/28 12:21:34;;;;;;;6.78;4.57;;;32.10;51.70;;;;;;4912317;29;20196;-84
2023/06/28 12:24:31;;;;;;;9.77;8.98;;;32.30;51.80;;;;;;4904075;29;20254;-83
2023/06/28 12:26:58;;;;;;;20.50;19.27;;;30.90;54.00;;;;;;4897902;29;20268;-82
2023/06/28 12:29:29;;;;;;;4.63;4.22;;;31.50;53.70;;;;;;4915890;29;20180;-84
2023/06/28 12:31:57;;;;;;;14.50;13.15;;;33.20;50.90;;;;;;4910392;29;20199;-84
2023/06/28 12:34:25;;;;;;;20.95;19.88;;;33.00;50.10;;;;;;4897323;29;20311;-83
2023/06/28 12:36:56;;;;;;;23.33;21.85;;;32.60;49.70;;;;;;4903871;29;20207;-85
2023/06/28 12:39:24;;;;;;;32.08;30.35;;;32.90;49.40;;;;;;4899297;29;20192;-82
2023/06/28 12:42:19;;;;;;;35.35;33.47;;;33.10;49.70;;;;;;4906518;29;20192;-82
2023/06/28 12:44:59;;;;;;;6.82;6.45;;;34.20;47.10;;;;;;4904978;29;20275;-83
2023/06/28 12:47:29;;;;;;;5.43;3.92;;;34.40;46.90;;;;;;4898078;29;20188;-82
2023/06/28 12:49:57;;;;;;;4.85;4.55;;;34.30;46.80;;;;;;4909505;29;20191;-82
2023/06/28 12:52:27;;;;;;;14.85;14.05;;;33.30;47.30;;;;;;4908434;29;20191;-83
2023/06/28 12:54:53;;;;;;;64.72;61.28;;;32.40;48.90;;;;;;4898964;29;20212;-83
2023/06/28 12:57:26;;;;;;;33.00;31.02;;;33.10;49.00;;;;;;4912393;29;20188;-82
2023/06/28 12:59:52;;;;;;;5.40;4.90;;;33.90;48.10;;;;;;4912488;29;20199;-83
2023/06/28 13:02:18;;;;;;;3.00;2.80;;;34.90;46.60;;;;;;4910894;29;20191;-82
2023/06/28 13:04:43;;;;;;;3.45;3.25;;;34.80;46.10;;;;;;4903599;29;20228;-82
2023/06/28 13:07:10;;;;;;;3.20;2.90;;;34.60;46.00;;;;;;4898566;29;20195;-81
2023/06/28 13:09:37;;;;;;;5.38;5.15;;;33.40;47.10;;;;;;4899427;29;20210;-82
2023/06/28 13:12:04;;;;;;;11.85;11.18;;;33.40;48.30;;;;;;4892485;29;20187;-81
2023/06/28 13:14:30;;;;;;;3.53;3.33;;;34.50;47.30;;;;;;4905573;29;20699;-83
2023/06/28 13:16:56;;;;;;;9.48;8.82;;;34.30;46.30;;;;;;4914676;29;20216;-82
2023/06/28 13:19:23;;;;;;;70.85;67.28;;;32.50;48.60;;;;;;4920490;29;20256;-81
2023/06/28 13:21:51;;;;;;;18.90;17.83;;;31.60;48.50;;;;;;4915106;29;20184;-82
2023/06/28 13:24:20;;;;;;;47.03;44.55;;;30.10;51.40;;;;;;4914936;29;20260;-83
2023/06/28 13:26:46;;;;;;;26.92;25.63;;;28.60;53.50;;;;;;4888988;29;20188;-84
2023/06/28 13:29:12;;;;;;;11.52;10.88;;;27.80;54.60;;;;;;4911036;29;20199;-83
2023/06/28 13:31:38;;;;;;;18.73;17.77;;;28.20;54.70;;;;;;4906013;29;20195;-84
2023/06/28 13:34:03;;;;;;;19.27;18.38;;;29.50;53.70;;;;;;4907426;29;20219;-85
2023/06/28 13:36:29;;;;;;;3.88;3.63;;;31.40;51.00;;;;;;4900704;29;20184;-82
2023/06/28 13:38:55;;;;;;;35.88;34.10;;;33.40;48.60;;;;;;4907884;29;20222;-81
2023/06/28 13:41:21;;;;;;;19.95;18.90;;;34.10;46.70;;;;;;4904291;29;20226;-84
2023/06/28 13:43:47;;;;;;;11.68;11.05;;;34.20;46.60;;;;;;4916578;29;20242;-83
2023/06/28 13:46:12;;;;;;;53.42;50.55;;;32.90;46.50;;;;;;4905011;29;20184;-83
2023/06/28 13:48:39;;;;;;;61.08;57.92;;;32.10;47.40;;;;;;4904514;29;20195;-83
2023/06/28 13:51:05;;;;;;;87.10;82.97;;;32.00;47.80;;;;;;4904192;29;20219;-83
2023/06/28 13:53:31;;;;;;;38.95;37.05;;;32.40;47.40;;;;;;4918518;29;20192;-82
2023/06/28 13:55:58;;;;;;;5.25;2.67;;;33.90;45.40;;;;;;4911462;29;20243;-83
2023/06/28 13:58:26;;;;;;;3.35;3.05;;;35.00;44.10;;;;;;4905557;29;20566;-83
2023/06/28 14:00:56;;;;;;;4.45;4.25;;;35.70;42.60;;;;;;4893129;29;20240;-82
2023/06/28 14:03:23;;;;;;;3.83;3.63;;;36.10;42.70;;;;;;4897196;29;20185;-83
2023/06/28 14:05:50;;;;;;;9.57;9.07;;;36.70;40.80;;;;;;4901032;29;20235;-83
2023/06/28 14:08:16;;;;;;;2.97;2.83;;;34.70;43.40;;;;;;4903854;29;20195;-84
2023/06/28 14:10:41;;;;;;;9.93;3.60;;;33.10;45.30;;;;;;4907050;29;20215;-84
2023/06/28 14:13:07;;;;;;;8.60;8.10;;;31.80;47.60;;;;;;4907725;29;20724;-84
2023/06/28 14:15:33;;;;;;;35.95;34.17;;;32.00;46.80;;;;;;4900796;29;20283;-83
2023/06/28 14:17:59;;;;;;;38.25;36.28;;;31.40;47.70;;;;;;4903257;29;20763;-84
2023/06/28 14:20:25;;;;;;;21.58;20.52;;;31.00;49.20;;;;;;4905525;29;20192;-84
2023/06/28 14:22:53;;;;;;;34.72;32.92;;;31.70;48.60;;;;;;4895362;29;20204;-83
2023/06/28 14:25:19;;;;;;;12.50;11.73;;;32.70;47.00;;;;;;4913929;29;20216;-84
2023/06/28 14:27:45;;;;;;;2.92;2.67;;;34.00;45.40;;;;;;4900457;29;20617;-84
2023/06/28 14:30:11;;;;;;;2.95;2.60;;;34.60;44.10;;;;;;4906618;29;20188;-83
2023/06/28 14:32:37;;;;;;;3.00;2.80;;;34.40;43.80;;;;;;4904191;29;20196;-82
2023/06/28 14:35:04;;;;;;;2.80;2.60;;;34.60;43.40;;;;;;4901351;29;20210;-83
2023/06/28 14:37:30;;;;;;;2.83;2.72;;;34.50;43.40;;;;;;4904341;29;20279;-82
2023/06/28 14:39:56;;;;;;;3.05;2.90;;;34.20;44.50;;;;;;4911979;29;20229;-83
2023/06/28 14:42:21;;;;;;;3.60;3.40;;;33.90;44.20;;;;;;4913661;29;20227;-84
2023/06/28 14:44:47;;;;;;;2.40;2.25;;;33.20;44.60;;;;;;4910411;29;20278;-82
2023/06/28 14:47:13;;;;;;;3.10;3.00;;;33.80;44.50;;;;;;4911889;29;20195;-83
2023/06/28 14:49:39;;;;;;;3.88;3.67;;;33.90;43.80;;;;;;4906485;29;20192;-70
2023/06/28 14:52:05;;;;;;;3.40;3.30;;;34.30;43.60;;;;;;4890025;29;20550;-68
2023/06/28 14:54:31;;;;;;;3.30;3.10;;;34.30;42.70;;;;;;4892798;29;20215;-68
2023/06/28 14:56:57;;;;;;;3.80;3.03;;;34.20;42.70;;;;;;4890073;29;20188;-69
2023/06/28 14:59:25;;;;;;;3.72;3.45;;;33.00;43.90;;;;;;4897764;29;20179;-68
2023/06/28 15:01:50;;;;;;;30.08;28.40;;;31.80;46.10;;;;;;4896807;29;20212;-85
2023/06/28 15:04:16;;;;;;;86.65;82.55;;;31.10;47.50;;;;;;4909016;29;20230;-84
2023/06/28 15:06:42;;;;;;;61.92;58.72;;;30.80;47.50;;;;;;4920472;29;20195;-84
2023/06/28 15:09:08;;;;;;;72.03;68.38;;;31.00;47.60;;;;;;4915556;29;20294;-84
2023/06/28 15:11:34;;;;;;;5.35;4.93;;;32.00;46.40;;;;;;4905434;29;20624;-84
2023/06/28 15:14:01;;;;;;;2.63;2.20;;;32.80;44.00;;;;;;4926634;24;20216;-76
2023/06/28 15:16:27;;;;;;;3.58;3.38;;;33.70;43.30;;;;;;4854114;29;20218;-76
2023/06/28 15:18:53;;;;;;;3.00;2.80;;;34.20;43.20;;;;;;4878510;29;20267;-76
2023/06/28 15:21:19;;;;;;;3.20;2.60;;;34.80;42.50;;;;;;4874847;29;20200;-75
2023/06/28 15:23:45;;;;;;;4.18;3.90;;;33.00;43.80;;;;;;4879084;29;20251;-78
2023/06/28 15:26:11;;;;;;;14.45;13.60;;;31.70;46.40;;;;;;4878798;29;20602;-77
2023/06/28 15:28:36;;;;;;;10.25;9.75;;;31.80;46.60;;;;;;4879003;29;20654;-78
2023/06/28 15:31:02;;;;;;;6.63;5.82;;;32.90;45.70;;;;;;4858508;29;20217;-77
2023/06/28 15:33:28;;;;;;;2.35;2.25;;;33.40;44.50;;;;;;4875149;29;20200;-77
2023/06/28 15:35:54;;;;;;;2.30;2.20;;;33.60;43.50;;;;;;4878757;29;20287;-77